sensor_id;sensor_type;location;lat;lon;timestamp;P1;durP1;ratioP1;P2;durP2;ratioP2
76131;SDS011;64877;50.994;13.650;2023-05-07T00:01:45;16.33;;;10.02;;
76131;SDS011;64877;50.994;13.650;2023-05-07T00:04:11;15.63;;;9.38;;
76131;SDS011;64877;50.994;13.650;2023-05-07T00:06:36;14.80;;;9.98;;
76131;SDS011;64877;50.994;13.650;2023-05-07T00:09:02;16.27;;;10.30;;
76131;SDS011;64877;50.994;13.650;2023-05-07T00:11:29;17.92;;;10.88;;
76131;SDS011;64877;50.994;13.650;2023-05-07T00:13:54;18.13;;;11.00;;
76131;SDS011;64877;50.994;13.650;2023-05-07T00:16:19;17.35;;;11.05;;
76131;SDS011;64877;50.994;13.650;2023-05-07T00:18:45;17.90;;;11.77;;
76131;SDS011;64877;50.994;13.650;2023-05-07T00:21:10;16.30;;;11.55;;
76131;SDS011;64877;50.994;13.650;2023-05-07T00:23:36;19.60;;;11.63;;
76131;SDS011;64877;50.994;13.650;2023-05-07T00:26:01;18.50;;;11.40;;
76131;SDS011;64877;50.994;13.650;2023-05-07T00:28:27;18.27;;;11.95;;
76131;SDS011;64877;50.994;13.650;2023-05-07T00:30:53;21.00;;;12.45;;
76131;SDS011;64877;50.994;13.650;2023-05-07T00:33:18;19.00;;;11.57;;
76131;SDS011;64877;50.994;13.650;2023-05-07T00:35:45;17.60;;;10.90;;
76131;SDS011;64877;50.994;13.650;2023-05-07T00:38:10;15.52;;;9.90;;
76131;SDS011;64877;50.994;13.650;2023-05-07T00:40:36;16.58;;;10.75;;
76131;SDS011;64877;50.994;13.650;2023-05-07T00:43:01;18.15;;;10.45;;
76131;SDS011;64877;50.994;13.650;2023-05-07T00:45:27;18.45;;;10.25;;
76131;SDS011;64877;50.994;13.650;2023-05-07T00:47:54;17.63;;;10.45;;
76131;SDS011;64877;50.994;13.650;2023-05-07T00:50:20;15.88;;;9.90;;
76131;SDS011;64877;50.994;13.650;2023-05-07T00:52:47;18.52;;;10.38;;
76131;SDS011;64877;50.994;13.650;2023-05-07T00:55:12;19.85;;;11.57;;
76131;SDS011;64877;50.994;13.650;2023-05-07T00:57:39;18.15;;;12.07;;
76131;SDS011;64877;50.994;13.650;2023-05-07T01:00:06;17.73;;;9.63;;
76131;SDS011;64877;50.994;13.650;2023-05-07T01:02:36;17.20;;;10.15;;
76131;SDS011;64877;50.994;13.650;2023-05-07T01:05:02;18.25;;;11.07;;
76131;SDS011;64877;50.994;13.650;2023-05-07T01:07:31;17.40;;;11.32;;
76131;SDS011;64877;50.994;13.650;2023-05-07T01:09:57;19.98;;;11.52;;
76131;SDS011;64877;50.994;13.650;2023-05-07T01:12:23;17.80;;;11.82;;
76131;SDS011;64877;50.994;13.650;2023-05-07T01:14:49;20.38;;;11.60;;
76131;SDS011;64877;50.994;13.650;2023-05-07T01:17:15;20.35;;;11.50;;
76131;SDS011;64877;50.994;13.650;2023-05-07T01:19:41;21.65;;;13.20;;
76131;SDS011;64877;50.994;13.650;2023-05-07T01:22:07;19.23;;;12.93;;
76131;SDS011;64877;50.994;13.650;2023-05-07T01:24:36;22.02;;;12.98;;
76131;SDS011;64877;50.994;13.650;2023-05-07T01:27:03;23.02;;;14.30;;
76131;SDS011;64877;50.994;13.650;2023-05-07T01:29:28;24.20;;;14.90;;
76131;SDS011;64877;50.994;13.650;2023-05-07T01:31:54;22.30;;;13.85;;
76131;SDS011;64877;50.994;13.650;2023-05-07T01:34:25;22.75;;;15.05;;
76131;SDS011;64877;50.994;13.650;2023-05-07T01:36:53;23.75;;;14.57;;
76131;SDS011;64877;50.994;13.650;2023-05-07T01:39:21;23.90;;;14.77;;
76131;SDS011;64877;50.994;13.650;2023-05-07T01:41:49;22.48;;;13.50;;
76131;SDS011;64877;50.994;13.650;2023-05-07T01:44:15;23.65;;;14.38;;
76131;SDS011;64877;50.994;13.650;2023-05-07T01:46:43;20.70;;;13.95;;
76131;SDS011;64877;50.994;13.650;2023-05-07T01:49:08;21.00;;;14.35;;
76131;SDS011;64877;50.994;13.650;2023-05-07T01:51:34;20.30;;;14.13;;
76131;SDS011;64877;50.994;13.650;2023-05-07T01:54:01;21.40;;;13.25;;
76131;SDS011;64877;50.994;13.650;2023-05-07T01:56:26;21.92;;;15.25;;
76131;SDS011;64877;50.994;13.650;2023-05-07T01:58:52;24.90;;;14.82;;
76131;SDS011;64877;50.994;13.650;2023-05-07T02:01:17;20.73;;;14.32;;
76131;SDS011;64877;50.994;13.650;2023-05-07T02:03:43;19.00;;;11.88;;
76131;SDS011;64877;50.994;13.650;2023-05-07T02:06:09;20.77;;;13.20;;
76131;SDS011;64877;50.994;13.650;2023-05-07T02:08:34;18.10;;;12.23;;
76131;SDS011;64877;50.994;13.650;2023-05-07T02:11:00;16.58;;;11.57;;
76131;SDS011;64877;50.994;13.650;2023-05-07T02:13:29;18.55;;;12.27;;
76131;SDS011;64877;50.994;13.650;2023-05-07T02:15:57;18.77;;;12.40;;
76131;SDS011;64877;50.994;13.650;2023-05-07T02:18:22;18.33;;;11.48;;
76131;SDS011;64877;50.994;13.650;2023-05-07T02:20:48;17.88;;;10.77;;
76131;SDS011;64877;50.994;13.650;2023-05-07T02:23:13;18.38;;;12.05;;
76131;SDS011;64877;50.994;13.650;2023-05-07T02:25:38;18.13;;;11.77;;
76131;SDS011;64877;50.994;13.650;2023-05-07T02:28:04;20.63;;;12.93;;
76131;SDS011;64877;50.994;13.650;2023-05-07T02:30:29;18.77;;;11.93;;
76131;SDS011;64877;50.994;13.650;2023-05-07T02:32:55;19.40;;;12.88;;
76131;SDS011;64877;50.994;13.650;2023-05-07T02:35:20;20.17;;;12.77;;
76131;SDS011;64877;50.994;13.650;2023-05-07T02:37:45;17.67;;;11.65;;
76131;SDS011;64877;50.994;13.650;2023-05-07T02:40:11;16.15;;;11.73;;
76131;SDS011;64877;50.994;13.650;2023-05-07T02:42:37;17.83;;;11.63;;
76131;SDS011;64877;50.994;13.650;2023-05-07T02:45:02;16.80;;;10.52;;
76131;SDS011;64877;50.994;13.650;2023-05-07T02:47:28;15.52;;;10.85;;
76131;SDS011;64877;50.994;13.650;2023-05-07T02:49:54;17.15;;;11.63;;
76131;SDS011;64877;50.994;13.650;2023-05-07T02:52:20;18.30;;;11.35;;
76131;SDS011;64877;50.994;13.650;2023-05-07T02:54:45;17.27;;;11.45;;
76131;SDS011;64877;50.994;13.650;2023-05-07T02:57:11;18.27;;;13.07;;
76131;SDS011;64877;50.994;13.650;2023-05-07T02:59:36;19.00;;;11.43;;
76131;SDS011;64877;50.994;13.650;2023-05-07T03:02:01;16.05;;;11.15;;
76131;SDS011;64877;50.994;13.650;2023-05-07T03:04:27;14.98;;;10.65;;
76131;SDS011;64877;50.994;13.650;2023-05-07T03:06:52;15.23;;;10.75;;
76131;SDS011;64877;50.994;13.650;2023-05-07T03:09:17;15.02;;;10.80;;
76131;SDS011;64877;50.994;13.650;2023-05-07T03:11:43;16.00;;;10.85;;
76131;SDS011;64877;50.994;13.650;2023-05-07T03:14:08;16.15;;;11.13;;
76131;SDS011;64877;50.994;13.650;2023-05-07T03:16:34;15.05;;;10.40;;
76131;SDS011;64877;50.994;13.650;2023-05-07T03:18:59;16.02;;;10.80;;
76131;SDS011;64877;50.994;13.650;2023-05-07T03:21:25;17.15;;;10.65;;
76131;SDS011;64877;50.994;13.650;2023-05-07T03:23:51;13.85;;;10.60;;
76131;SDS011;64877;50.994;13.650;2023-05-07T03:26:17;13.75;;;10.07;;
76131;SDS011;64877;50.994;13.650;2023-05-07T03:28:42;16.55;;;10.73;;
76131;SDS011;64877;50.994;13.650;2023-05-07T03:31:07;17.63;;;11.02;;
76131;SDS011;64877;50.994;13.650;2023-05-07T03:33:33;14.93;;;10.60;;
76131;SDS011;64877;50.994;13.650;2023-05-07T03:35:59;19.65;;;10.77;;
76131;SDS011;64877;50.994;13.650;2023-05-07T03:38:25;15.52;;;10.00;;
76131;SDS011;64877;50.994;13.650;2023-05-07T03:40:51;13.73;;;9.50;;
76131;SDS011;64877;50.994;13.650;2023-05-07T03:43:16;15.60;;;10.07;;
76131;SDS011;64877;50.994;13.650;2023-05-07T03:45:41;11.23;;;7.93;;
76131;SDS011;64877;50.994;13.650;2023-05-07T03:48:07;11.82;;;7.45;;
76131;SDS011;64877;50.994;13.650;2023-05-07T03:50:32;10.88;;;7.75;;
76131;SDS011;64877;50.994;13.650;2023-05-07T03:52:58;12.75;;;8.88;;
76131;SDS011;64877;50.994;13.650;2023-05-07T03:55:23;12.52;;;7.50;;
76131;SDS011;64877;50.994;13.650;2023-05-07T03:57:49;14.05;;;7.95;;
76131;SDS011;64877;50.994;13.650;2023-05-07T04:00:14;10.07;;;7.07;;
76131;SDS011;64877;50.994;13.650;2023-05-07T04:02:40;11.02;;;7.18;;
76131;SDS011;64877;50.994;13.650;2023-05-07T04:05:05;10.60;;;6.57;;
76131;SDS011;64877;50.994;13.650;2023-05-07T04:07:31;10.35;;;6.30;;
76131;SDS011;64877;50.994;13.650;2023-05-07T04:09:56;9.98;;;6.35;;
76131;SDS011;64877;50.994;13.650;2023-05-07T04:12:22;9.50;;;6.30;;
76131;SDS011;64877;50.994;13.650;2023-05-07T04:14:47;9.80;;;5.53;;
76131;SDS011;64877;50.994;13.650;2023-05-07T04:17:12;9.52;;;6.22;;
76131;SDS011;64877;50.994;13.650;2023-05-07T04:19:38;9.10;;;5.78;;
76131;SDS011;64877;50.994;13.650;2023-05-07T04:22:03;8.15;;;5.68;;
76131;SDS011;64877;50.994;13.650;2023-05-07T04:24:31;9.98;;;6.45;;
76131;SDS011;64877;50.994;13.650;2023-05-07T04:26:57;10.38;;;6.18;;
76131;SDS011;64877;50.994;13.650;2023-05-07T04:29:23;10.57;;;5.80;;
76131;SDS011;64877;50.994;13.650;2023-05-07T04:31:49;9.02;;;5.85;;
76131;SDS011;64877;50.994;13.650;2023-05-07T04:34:14;9.63;;;6.00;;
76131;SDS011;64877;50.994;13.650;2023-05-07T04:36:40;10.43;;;6.00;;
76131;SDS011;64877;50.994;13.650;2023-05-07T04:39:07;8.57;;;5.53;;
76131;SDS011;64877;50.994;13.650;2023-05-07T04:41:33;11.98;;;6.82;;
76131;SDS011;64877;50.994;13.650;2023-05-07T04:44:01;10.00;;;6.82;;
76131;SDS011;64877;50.994;13.650;2023-05-07T04:46:26;11.85;;;7.53;;
76131;SDS011;64877;50.994;13.650;2023-05-07T04:48:52;10.25;;;6.55;;
76131;SDS011;64877;50.994;13.650;2023-05-07T04:51:17;11.27;;;7.28;;
76131;SDS011;64877;50.994;13.650;2023-05-07T04:53:42;11.80;;;7.18;;
76131;SDS011;64877;50.994;13.650;2023-05-07T04:56:08;13.32;;;7.40;;
76131;SDS011;64877;50.994;13.650;2023-05-07T04:58:33;13.27;;;8.20;;
76131;SDS011;64877;50.994;13.650;2023-05-07T05:00:59;12.85;;;7.80;;
76131;SDS011;64877;50.994;13.650;2023-05-07T05:03:25;15.68;;;8.57;;
76131;SDS011;64877;50.994;13.650;2023-05-07T05:05:51;13.48;;;8.25;;
76131;SDS011;64877;50.994;13.650;2023-05-07T05:08:17;13.13;;;7.95;;
76131;SDS011;64877;50.994;13.650;2023-05-07T05:10:43;13.45;;;8.27;;
76131;SDS011;64877;50.994;13.650;2023-05-07T05:13:09;14.23;;;8.20;;
76131;SDS011;64877;50.994;13.650;2023-05-07T05:15:34;13.50;;;8.77;;
76131;SDS011;64877;50.994;13.650;2023-05-07T05:18:00;13.15;;;8.27;;
76131;SDS011;64877;50.994;13.650;2023-05-07T05:20:26;13.93;;;9.10;;
76131;SDS011;64877;50.994;13.650;2023-05-07T05:22:51;13.93;;;8.07;;
76131;SDS011;64877;50.994;13.650;2023-05-07T05:25:16;13.18;;;8.77;;
76131;SDS011;64877;50.994;13.650;2023-05-07T05:27:42;14.40;;;8.43;;
76131;SDS011;64877;50.994;13.650;2023-05-07T05:30:07;13.50;;;8.50;;
76131;SDS011;64877;50.994;13.650;2023-05-07T05:32:33;14.15;;;8.30;;
76131;SDS011;64877;50.994;13.650;2023-05-07T05:34:58;13.38;;;8.43;;
76131;SDS011;64877;50.994;13.650;2023-05-07T05:37:24;15.68;;;8.30;;
76131;SDS011;64877;50.994;13.650;2023-05-07T05:39:50;13.68;;;8.35;;
76131;SDS011;64877;50.994;13.650;2023-05-07T05:42:15;13.68;;;8.70;;
76131;SDS011;64877;50.994;13.650;2023-05-07T05:44:41;11.52;;;7.80;;
76131;SDS011;64877;50.994;13.650;2023-05-07T05:47:06;13.05;;;8.23;;
76131;SDS011;64877;50.994;13.650;2023-05-07T05:49:31;10.27;;;7.10;;
76131;SDS011;64877;50.994;13.650;2023-05-07T05:51:57;13.45;;;7.78;;
76131;SDS011;64877;50.994;13.650;2023-05-07T05:54:22;12.68;;;7.63;;
76131;SDS011;64877;50.994;13.650;2023-05-07T05:56:48;14.65;;;8.85;;
76131;SDS011;64877;50.994;13.650;2023-05-07T05:59:14;14.77;;;9.25;;
76131;SDS011;64877;50.994;13.650;2023-05-07T06:01:39;13.20;;;8.60;;
76131;SDS011;64877;50.994;13.650;2023-05-07T06:04:05;14.88;;;8.27;;
76131;SDS011;64877;50.994;13.650;2023-05-07T06:06:31;12.93;;;8.57;;
76131;SDS011;64877;50.994;13.650;2023-05-07T06:08:56;14.65;;;8.77;;
76131;SDS011;64877;50.994;13.650;2023-05-07T06:11:22;13.88;;;8.55;;
76131;SDS011;64877;50.994;13.650;2023-05-07T06:13:47;14.98;;;8.40;;
76131;SDS011;64877;50.994;13.650;2023-05-07T06:16:13;13.20;;;8.05;;
76131;SDS011;64877;50.994;13.650;2023-05-07T06:18:40;12.60;;;7.88;;
76131;SDS011;64877;50.994;13.650;2023-05-07T06:21:05;13.15;;;7.68;;
76131;SDS011;64877;50.994;13.650;2023-05-07T06:23:30;14.52;;;8.52;;
76131;SDS011;64877;50.994;13.650;2023-05-07T06:25:56;15.07;;;8.23;;
76131;SDS011;64877;50.994;13.650;2023-05-07T06:28:21;11.93;;;7.72;;
76131;SDS011;64877;50.994;13.650;2023-05-07T06:30:47;11.32;;;7.25;;
76131;SDS011;64877;50.994;13.650;2023-05-07T06:33:14;13.90;;;7.47;;
76131;SDS011;64877;50.994;13.650;2023-05-07T06:35:40;10.60;;;7.10;;
76131;SDS011;64877;50.994;13.650;2023-05-07T06:38:05;11.40;;;7.22;;
76131;SDS011;64877;50.994;13.650;2023-05-07T06:40:31;11.30;;;6.72;;
76131;SDS011;64877;50.994;13.650;2023-05-07T06:42:56;11.98;;;7.32;;
76131;SDS011;64877;50.994;13.650;2023-05-07T06:45:21;11.57;;;6.70;;
76131;SDS011;64877;50.994;13.650;2023-05-07T06:47:47;12.25;;;7.05;;
76131;SDS011;64877;50.994;13.650;2023-05-07T06:50:12;11.77;;;6.63;;
76131;SDS011;64877;50.994;13.650;2023-05-07T06:52:38;11.73;;;6.07;;
76131;SDS011;64877;50.994;13.650;2023-05-07T06:55:03;11.07;;;5.95;;
76131;SDS011;64877;50.994;13.650;2023-05-07T06:57:29;10.73;;;5.55;;
76131;SDS011;64877;50.994;13.650;2023-05-07T06:59:55;10.65;;;5.88;;
76131;SDS011;64877;50.994;13.650;2023-05-07T07:02:20;9.88;;;5.40;;
76131;SDS011;64877;50.994;13.650;2023-05-07T07:04:46;9.05;;;5.15;;
76131;SDS011;64877;50.994;13.650;2023-05-07T07:07:11;8.55;;;5.18;;
76131;SDS011;64877;50.994;13.650;2023-05-07T07:09:37;8.77;;;5.25;;
76131;SDS011;64877;50.994;13.650;2023-05-07T07:12:02;8.50;;;5.15;;
76131;SDS011;64877;50.994;13.650;2023-05-07T07:14:28;10.32;;;5.07;;
76131;SDS011;64877;50.994;13.650;2023-05-07T07:16:53;7.75;;;4.75;;
76131;SDS011;64877;50.994;13.650;2023-05-07T07:19:18;7.32;;;4.80;;
76131;SDS011;64877;50.994;13.650;2023-05-07T07:21:45;9.05;;;5.25;;
76131;SDS011;64877;50.994;13.650;2023-05-07T07:24:10;9.57;;;5.20;;
76131;SDS011;64877;50.994;13.650;2023-05-07T07:26:36;7.93;;;4.97;;
76131;SDS011;64877;50.994;13.650;2023-05-07T07:29:01;8.23;;;5.03;;
76131;SDS011;64877;50.994;13.650;2023-05-07T07:31:26;9.13;;;5.30;;
76131;SDS011;64877;50.994;13.650;2023-05-07T07:33:52;7.38;;;4.70;;
76131;SDS011;64877;50.994;13.650;2023-05-07T07:36:17;8.23;;;4.72;;
76131;SDS011;64877;50.994;13.650;2023-05-07T07:38:42;8.25;;;4.40;;
76131;SDS011;64877;50.994;13.650;2023-05-07T07:41:08;7.13;;;4.40;;
76131;SDS011;64877;50.994;13.650;2023-05-07T07:43:34;9.05;;;4.90;;
76131;SDS011;64877;50.994;13.650;2023-05-07T07:46:00;8.57;;;5.07;;
76131;SDS011;64877;50.994;13.650;2023-05-07T07:48:26;8.48;;;4.72;;
76131;SDS011;64877;50.994;13.650;2023-05-07T07:50:51;10.20;;;5.05;;
76131;SDS011;64877;50.994;13.650;2023-05-07T07:53:17;8.40;;;5.03;;
76131;SDS011;64877;50.994;13.650;2023-05-07T07:55:43;7.10;;;4.80;;
76131;SDS011;64877;50.994;13.650;2023-05-07T07:58:08;10.07;;;4.95;;
76131;SDS011;64877;50.994;13.650;2023-05-07T08:00:33;12.23;;;5.50;;
76131;SDS011;64877;50.994;13.650;2023-05-07T08:02:59;10.13;;;5.15;;
76131;SDS011;64877;50.994;13.650;2023-05-07T08:05:25;20.40;;;6.30;;
76131;SDS011;64877;50.994;13.650;2023-05-07T08:07:50;22.33;;;5.63;;
76131;SDS011;64877;50.994;13.650;2023-05-07T08:10:17;8.63;;;5.38;;
76131;SDS011;64877;50.994;13.650;2023-05-07T08:12:46;10.48;;;4.80;;
76131;SDS011;64877;50.994;13.650;2023-05-07T08:15:15;6.80;;;3.92;;
76131;SDS011;64877;50.994;13.650;2023-05-07T08:17:41;5.78;;;3.90;;
76131;SDS011;64877;50.994;13.650;2023-05-07T08:20:07;5.97;;;3.97;;
76131;SDS011;64877;50.994;13.650;2023-05-07T08:22:36;6.50;;;4.35;;
76131;SDS011;64877;50.994;13.650;2023-05-07T08:25:02;7.28;;;3.60;;
76131;SDS011;64877;50.994;13.650;2023-05-07T08:27:28;5.93;;;3.50;;
76131;SDS011;64877;50.994;13.650;2023-05-07T08:29:53;6.25;;;3.85;;
76131;SDS011;64877;50.994;13.650;2023-05-07T08:32:19;5.35;;;3.67;;
76131;SDS011;64877;50.994;13.650;2023-05-07T08:34:45;6.10;;;3.58;;
76131;SDS011;64877;50.994;13.650;2023-05-07T08:37:11;4.82;;;3.25;;
76131;SDS011;64877;50.994;13.650;2023-05-07T08:39:36;5.57;;;3.92;;
76131;SDS011;64877;50.994;13.650;2023-05-07T08:42:01;5.57;;;3.17;;
76131;SDS011;64877;50.994;13.650;2023-05-07T08:44:29;4.88;;;3.55;;
76131;SDS011;64877;50.994;13.650;2023-05-07T08:46:58;4.63;;;3.20;;
76131;SDS011;64877;50.994;13.650;2023-05-07T08:49:25;4.93;;;3.22;;
76131;SDS011;64877;50.994;13.650;2023-05-07T08:51:52;5.03;;;3.40;;
76131;SDS011;64877;50.994;13.650;2023-05-07T08:54:17;4.10;;;2.50;;
76131;SDS011;64877;50.994;13.650;2023-05-07T08:56:44;4.00;;;2.70;;
76131;SDS011;64877;50.994;13.650;2023-05-07T08:59:10;4.82;;;3.05;;
76131;SDS011;64877;50.994;13.650;2023-05-07T09:01:35;4.82;;;3.08;;
76131;SDS011;64877;50.994;13.650;2023-05-07T09:04:01;4.50;;;2.90;;
76131;SDS011;64877;50.994;13.650;2023-05-07T09:06:26;4.65;;;2.50;;
76131;SDS011;64877;50.994;13.650;2023-05-07T09:08:53;5.57;;;3.20;;
76131;SDS011;64877;50.994;13.650;2023-05-07T09:11:20;3.88;;;2.97;;
76131;SDS011;64877;50.994;13.650;2023-05-07T09:13:47;4.97;;;2.78;;
76131;SDS011;64877;50.994;13.650;2023-05-07T09:16:13;4.13;;;2.70;;
76131;SDS011;64877;50.994;13.650;2023-05-07T09:18:40;4.70;;;3.10;;
76131;SDS011;64877;50.994;13.650;2023-05-07T09:21:09;4.22;;;2.90;;
76131;SDS011;64877;50.994;13.650;2023-05-07T09:23:35;5.35;;;2.90;;
76131;SDS011;64877;50.994;13.650;2023-05-07T09:26:00;5.40;;;3.10;;
76131;SDS011;64877;50.994;13.650;2023-05-07T09:28:26;5.47;;;3.50;;
76131;SDS011;64877;50.994;13.650;2023-05-07T09:30:52;4.97;;;3.28;;
76131;SDS011;64877;50.994;13.650;2023-05-07T09:33:17;6.47;;;4.13;;
76131;SDS011;64877;50.994;13.650;2023-05-07T09:35:43;4.60;;;3.33;;
76131;SDS011;64877;50.994;13.650;2023-05-07T09:38:08;6.32;;;4.03;;
76131;SDS011;64877;50.994;13.650;2023-05-07T09:40:33;7.72;;;3.88;;
76131;SDS011;64877;50.994;13.650;2023-05-07T09:43:08;6.75;;;3.78;;
76131;SDS011;64877;50.994;13.650;2023-05-07T09:45:35;6.80;;;4.43;;
76131;SDS011;64877;50.994;13.650;2023-05-07T09:48:01;7.22;;;3.95;;
76131;SDS011;64877;50.994;13.650;2023-05-07T09:50:32;4.72;;;3.70;;
76131;SDS011;64877;50.994;13.650;2023-05-07T09:53:01;7.30;;;3.97;;
76131;SDS011;64877;50.994;13.650;2023-05-07T09:55:28;6.55;;;4.38;;
76131;SDS011;64877;50.994;13.650;2023-05-07T09:57:55;8.43;;;4.80;;
76131;SDS011;64877;50.994;13.650;2023-05-07T10:00:22;6.38;;;4.25;;
76131;SDS011;64877;50.994;13.650;2023-05-07T10:02:48;5.65;;;3.92;;
76131;SDS011;64877;50.994;13.650;2023-05-07T10:05:16;5.53;;;3.78;;
76131;SDS011;64877;50.994;13.650;2023-05-07T10:07:43;8.40;;;4.57;;
76131;SDS011;64877;50.994;13.650;2023-05-07T10:10:09;8.43;;;4.88;;
76131;SDS011;64877;50.994;13.650;2023-05-07T10:12:35;8.10;;;4.78;;
76131;SDS011;64877;50.994;13.650;2023-05-07T10:15:07;6.20;;;4.18;;
76131;SDS011;64877;50.994;13.650;2023-05-07T10:17:37;7.00;;;4.07;;
76131;SDS011;64877;50.994;13.650;2023-05-07T10:20:04;5.15;;;3.70;;
76131;SDS011;64877;50.994;13.650;2023-05-07T10:22:43;5.85;;;4.20;;
76131;SDS011;64877;50.994;13.650;2023-05-07T10:25:14;5.95;;;3.58;;
76131;SDS011;64877;50.994;13.650;2023-05-07T10:27:43;5.78;;;4.00;;
76131;SDS011;64877;50.994;13.650;2023-05-07T10:30:34;6.28;;;4.35;;
76131;SDS011;64877;50.994;13.650;2023-05-07T10:33:13;4.82;;;3.58;;
76131;SDS011;64877;50.994;13.650;2023-05-07T10:35:43;5.60;;;3.85;;
76131;SDS011;64877;50.994;13.650;2023-05-07T10:38:11;6.00;;;4.18;;
76131;SDS011;64877;50.994;13.650;2023-05-07T10:40:37;5.10;;;3.60;;
76131;SDS011;64877;50.994;13.650;2023-05-07T10:43:03;4.97;;;3.60;;
76131;SDS011;64877;50.994;13.650;2023-05-07T10:45:30;6.50;;;4.47;;
76131;SDS011;64877;50.994;13.650;2023-05-07T10:50:35;6.20;;;4.30;;
76131;SDS011;64877;50.994;13.650;2023-05-07T10:55:42;7.00;;;4.80;;
76131;SDS011;64877;50.994;13.650;2023-05-07T10:58:24;7.85;;;4.47;;
76131;SDS011;64877;50.994;13.650;2023-05-07T11:00:55;5.97;;;4.30;;
76131;SDS011;64877;50.994;13.650;2023-05-07T11:03:24;6.00;;;4.25;;
76131;SDS011;64877;50.994;13.650;2023-05-07T11:06:23;6.35;;;4.40;;
76131;SDS011;64877;50.994;13.650;2023-05-07T11:11:16;5.80;;;4.25;;
76131;SDS011;64877;50.994;13.650;2023-05-07T11:13:43;7.38;;;4.13;;
76131;SDS011;64877;50.994;13.650;2023-05-07T11:16:22;6.05;;;4.53;;
76131;SDS011;64877;50.994;13.650;2023-05-07T11:18:51;6.70;;;4.78;;
76131;SDS011;64877;50.994;13.650;2023-05-07T11:24:07;7.45;;;4.55;;
76131;SDS011;64877;50.994;13.650;2023-05-07T11:29:16;7.97;;;4.88;;
76131;SDS011;64877;50.994;13.650;2023-05-07T11:31:52;5.90;;;4.35;;
76131;SDS011;64877;50.994;13.650;2023-05-07T11:34:23;5.78;;;4.22;;
76131;SDS011;64877;50.994;13.650;2023-05-07T11:36:50;6.68;;;4.70;;
76131;SDS011;64877;50.994;13.650;2023-05-07T11:41:50;7.80;;;4.78;;
76131;SDS011;64877;50.994;13.650;2023-05-07T11:44:16;6.75;;;4.75;;
76131;SDS011;64877;50.994;13.650;2023-05-07T11:46:44;5.78;;;4.13;;
76131;SDS011;64877;50.994;13.650;2023-05-07T11:49:10;6.05;;;4.30;;
76131;SDS011;64877;50.994;13.650;2023-05-07T11:51:36;5.72;;;4.57;;
76131;SDS011;64877;50.994;13.650;2023-05-07T11:54:03;6.60;;;4.55;;
76131;SDS011;64877;50.994;13.650;2023-05-07T11:56:29;6.57;;;3.88;;
76131;SDS011;64877;50.994;13.650;2023-05-07T11:58:58;6.10;;;3.95;;
76131;SDS011;64877;50.994;13.650;2023-05-07T12:01:24;7.15;;;4.30;;
76131;SDS011;64877;50.994;13.650;2023-05-07T12:03:49;6.60;;;4.82;;
76131;SDS011;64877;50.994;13.650;2023-05-07T12:06:15;6.35;;;4.13;;
76131;SDS011;64877;50.994;13.650;2023-05-07T12:08:42;5.57;;;4.20;;
76131;SDS011;64877;50.994;13.650;2023-05-07T12:11:09;6.25;;;3.88;;
76131;SDS011;64877;50.994;13.650;2023-05-07T12:13:37;5.82;;;4.15;;
76131;SDS011;64877;50.994;13.650;2023-05-07T12:16:03;6.13;;;4.15;;
76131;SDS011;64877;50.994;13.650;2023-05-07T12:18:30;6.80;;;4.32;;
76131;SDS011;64877;50.994;13.650;2023-05-07T12:20:56;5.22;;;4.25;;
76131;SDS011;64877;50.994;13.650;2023-05-07T12:23:22;6.07;;;4.40;;
76131;SDS011;64877;50.994;13.650;2023-05-07T12:25:48;6.07;;;4.65;;
76131;SDS011;64877;50.994;13.650;2023-05-07T12:28:14;6.30;;;4.40;;
76131;SDS011;64877;50.994;13.650;2023-05-07T12:30:44;8.18;;;3.95;;
76131;SDS011;64877;50.994;13.650;2023-05-07T12:33:10;6.13;;;4.50;;
76131;SDS011;64877;50.994;13.650;2023-05-07T12:35:37;6.65;;;4.85;;
76131;SDS011;64877;50.994;13.650;2023-05-07T12:38:08;5.60;;;4.55;;
76131;SDS011;64877;50.994;13.650;2023-05-07T12:40:36;6.47;;;4.55;;
76131;SDS011;64877;50.994;13.650;2023-05-07T12:45:28;6.43;;;4.37;;
76131;SDS011;64877;50.994;13.650;2023-05-07T12:47:53;6.18;;;4.43;;
76131;SDS011;64877;50.994;13.650;2023-05-07T12:50:19;5.88;;;4.28;;
76131;SDS011;64877;50.994;13.650;2023-05-07T12:52:47;10.30;;;5.22;;
76131;SDS011;64877;50.994;13.650;2023-05-07T12:55:16;6.78;;;4.90;;
76131;SDS011;64877;50.994;13.650;2023-05-07T12:57:42;8.05;;;4.93;;
76131;SDS011;64877;50.994;13.650;2023-05-07T13:00:10;7.10;;;5.05;;
76131;SDS011;64877;50.994;13.650;2023-05-07T13:02:40;6.78;;;5.00;;
76131;SDS011;64877;50.994;13.650;2023-05-07T13:05:06;7.03;;;4.53;;
76131;SDS011;64877;50.994;13.650;2023-05-07T13:07:33;6.00;;;4.93;;
76131;SDS011;64877;50.994;13.650;2023-05-07T13:09:58;7.60;;;4.72;;
76131;SDS011;64877;50.994;13.650;2023-05-07T13:12:24;6.53;;;4.90;;
76131;SDS011;64877;50.994;13.650;2023-05-07T13:14:49;6.43;;;4.88;;
76131;SDS011;64877;50.994;13.650;2023-05-07T13:17:15;5.90;;;4.07;;
76131;SDS011;64877;50.994;13.650;2023-05-07T13:19:40;7.30;;;4.57;;
76131;SDS011;64877;50.994;13.650;2023-05-07T13:22:05;8.10;;;4.97;;
76131;SDS011;64877;50.994;13.650;2023-05-07T13:24:31;5.53;;;4.20;;
76131;SDS011;64877;50.994;13.650;2023-05-07T13:26:56;5.75;;;4.50;;
76131;SDS011;64877;50.994;13.650;2023-05-07T13:29:22;6.28;;;4.70;;
76131;SDS011;64877;50.994;13.650;2023-05-07T13:31:56;6.82;;;4.13;;
76131;SDS011;64877;50.994;13.650;2023-05-07T13:34:21;6.07;;;4.22;;
76131;SDS011;64877;50.994;13.650;2023-05-07T13:36:47;5.95;;;4.20;;
76131;SDS011;64877;50.994;13.650;2023-05-07T13:39:12;6.72;;;4.28;;
76131;SDS011;64877;50.994;13.650;2023-05-07T13:41:38;5.10;;;3.88;;
76131;SDS011;64877;50.994;13.650;2023-05-07T13:44:03;7.72;;;4.63;;
76131;SDS011;64877;50.994;13.650;2023-05-07T13:46:29;5.70;;;4.38;;
76131;SDS011;64877;50.994;13.650;2023-05-07T13:48:54;5.57;;;4.03;;
76131;SDS011;64877;50.994;13.650;2023-05-07T13:51:20;6.20;;;3.97;;
76131;SDS011;64877;50.994;13.650;2023-05-07T13:53:46;5.40;;;4.05;;
76131;SDS011;64877;50.994;13.650;2023-05-07T13:56:12;5.95;;;3.42;;
76131;SDS011;64877;50.994;13.650;2023-05-07T13:58:37;8.45;;;4.55;;
76131;SDS011;64877;50.994;13.650;2023-05-07T14:01:03;4.90;;;3.63;;
76131;SDS011;64877;50.994;13.650;2023-05-07T14:03:28;6.50;;;4.53;;
76131;SDS011;64877;50.994;13.650;2023-05-07T14:05:54;5.18;;;3.80;;
76131;SDS011;64877;50.994;13.650;2023-05-07T14:08:20;5.28;;;3.85;;
76131;SDS011;64877;50.994;13.650;2023-05-07T14:10:46;7.40;;;4.53;;
76131;SDS011;64877;50.994;13.650;2023-05-07T14:13:11;5.28;;;3.53;;
76131;SDS011;64877;50.994;13.650;2023-05-07T14:15:37;5.50;;;3.92;;
76131;SDS011;64877;50.994;13.650;2023-05-07T14:18:03;5.75;;;4.05;;
76131;SDS011;64877;50.994;13.650;2023-05-07T14:20:30;7.43;;;4.35;;
76131;SDS011;64877;50.994;13.650;2023-05-07T14:22:58;6.00;;;4.20;;
76131;SDS011;64877;50.994;13.650;2023-05-07T14:25:26;5.13;;;3.55;;
76131;SDS011;64877;50.994;13.650;2023-05-07T14:27:53;4.82;;;3.55;;
76131;SDS011;64877;50.994;13.650;2023-05-07T14:30:20;4.90;;;3.53;;
76131;SDS011;64877;50.994;13.650;2023-05-07T14:32:49;5.88;;;3.70;;
76131;SDS011;64877;50.994;13.650;2023-05-07T14:35:15;5.75;;;4.07;;
76131;SDS011;64877;50.994;13.650;2023-05-07T14:37:40;5.60;;;3.80;;
76131;SDS011;64877;50.994;13.650;2023-05-07T14:40:05;5.82;;;3.72;;